sensor_id;sensor_type;location;lat;lon;timestamp;P1;durP1;ratioP1;P2;durP2;ratioP2
14396;SDS011;50653;47.810;13.022;2024-03-25T00:01:30;0.60;;;0.43;;
14396;SDS011;50653;47.810;13.022;2024-03-25T00:03:56;0.50;;;0.40;;
14396;SDS011;50653;47.810;13.022;2024-03-25T00:06:22;1.43;;;0.50;;
14396;SDS011;50653;47.810;13.022;2024-03-25T00:08:47;1.03;;;0.57;;
14396;SDS011;50653;47.810;13.022;2024-03-25T00:11:13;0.63;;;0.50;;
14396;SDS011;50653;47.810;13.022;2024-03-25T00:13:39;0.47;;;0.37;;
14396;SDS011;50653;47.810;13.022;2024-03-25T00:16:04;0.70;;;0.50;;
14396;SDS011;50653;47.810;13.022;2024-03-25T00:18:31;0.60;;;0.40;;
14396;SDS011;50653;47.810;13.022;2024-03-25T00:20:57;1.03;;;0.57;;
14396;SDS011;50653;47.810;13.022;2024-03-25T00:23:23;0.50;;;0.40;;
14396;SDS011;50653;47.810;13.022;2024-03-25T00:25:49;0.63;;;0.50;;
14396;SDS011;50653;47.810;13.022;2024-03-25T00:28:15;0.50;;;0.40;;
14396;SDS011;50653;47.810;13.022;2024-03-25T00:30:41;0.50;;;0.40;;
14396;SDS011;50653;47.810;13.022;2024-03-25T00:33:06;0.77;;;0.70;;
14396;SDS011;50653;47.810;13.022;2024-03-25T00:35:35;0.60;;;0.50;;
14396;SDS011;50653;47.810;13.022;2024-03-25T00:38:01;0.80;;;0.70;;
14396;SDS011;50653;47.810;13.022;2024-03-25T00:40:26;0.70;;;0.50;;
14396;SDS011;50653;47.810;13.022;2024-03-25T00:42:52;0.60;;;0.40;;
14396;SDS011;50653;47.810;13.022;2024-03-25T00:45:18;0.60;;;0.40;;
14396;SDS011;50653;47.810;13.022;2024-03-25T00:47:44;0.60;;;0.40;;
14396;SDS011;50653;47.810;13.022;2024-03-25T00:50:09;0.60;;;0.60;;
14396;SDS011;50653;47.810;13.022;2024-03-25T00:52:35;0.60;;;0.40;;
14396;SDS011;50653;47.810;13.022;2024-03-25T00:55:01;0.50;;;0.40;;
14396;SDS011;50653;47.810;13.022;2024-03-25T00:57:28;0.60;;;0.40;;
14396;SDS011;50653;47.810;13.022;2024-03-25T00:59:54;0.50;;;0.50;;
14396;SDS011;50653;47.810;13.022;2024-03-25T01:02:20;0.60;;;0.40;;
14396;SDS011;50653;47.810;13.022;2024-03-25T01:04:46;1.37;;;0.40;;
14396;SDS011;50653;47.810;13.022;2024-03-25T01:07:12;0.67;;;0.50;;
14396;SDS011;50653;47.810;13.022;2024-03-25T01:09:37;0.53;;;0.40;;
14396;SDS011;50653;47.810;13.022;2024-03-25T01:12:03;0.50;;;0.40;;
14396;SDS011;50653;47.810;13.022;2024-03-25T01:14:29;0.77;;;0.50;;
14396;SDS011;50653;47.810;13.022;2024-03-25T01:16:55;0.60;;;0.50;;
14396;SDS011;50653;47.810;13.022;2024-03-25T01:19:21;0.90;;;0.60;;
14396;SDS011;50653;47.810;13.022;2024-03-25T01:21:47;0.73;;;0.60;;
14396;SDS011;50653;47.810;13.022;2024-03-25T01:24:14;0.70;;;0.57;;
14396;SDS011;50653;47.810;13.022;2024-03-25T01:26:40;0.63;;;0.60;;
14396;SDS011;50653;47.810;13.022;2024-03-25T01:29:06;0.80;;;0.50;;
14396;SDS011;50653;47.810;13.022;2024-03-25T01:31:32;1.43;;;0.50;;
14396;SDS011;50653;47.810;13.022;2024-03-25T01:33:59;0.80;;;0.50;;
14396;SDS011;50653;47.810;13.022;2024-03-25T01:36:25;0.77;;;0.50;;
14396;SDS011;50653;47.810;13.022;2024-03-25T01:38:52;0.73;;;0.67;;
14396;SDS011;50653;47.810;13.022;2024-03-25T01:41:20;0.70;;;0.60;;
14396;SDS011;50653;47.810;13.022;2024-03-25T01:43:48;0.90;;;0.60;;
14396;SDS011;50653;47.810;13.022;2024-03-25T01:46:14;1.13;;;0.50;;
14396;SDS011;50653;47.810;13.022;2024-03-25T01:48:43;0.70;;;0.50;;
14396;SDS011;50653;47.810;13.022;2024-03-25T01:51:09;1.90;;;0.63;;
14396;SDS011;50653;47.810;13.022;2024-03-25T01:53:40;0.73;;;0.60;;
14396;SDS011;50653;47.810;13.022;2024-03-25T01:56:06;0.70;;;0.57;;
14396;SDS011;50653;47.810;13.022;2024-03-25T01:58:33;0.80;;;0.70;;
14396;SDS011;50653;47.810;13.022;2024-03-25T02:00:59;0.70;;;0.60;;
14396;SDS011;50653;47.810;13.022;2024-03-25T02:03:26;0.70;;;0.50;;
14396;SDS011;50653;47.810;13.022;2024-03-25T02:05:57;0.60;;;0.50;;
14396;SDS011;50653;47.810;13.022;2024-03-25T02:08:26;3.07;;;0.70;;
14396;SDS011;50653;47.810;13.022;2024-03-25T02:10:53;0.80;;;0.70;;
14396;SDS011;50653;47.810;13.022;2024-03-25T02:13:20;0.70;;;0.60;;
14396;SDS011;50653;47.810;13.022;2024-03-25T02:15:46;0.60;;;0.40;;
14396;SDS011;50653;47.810;13.022;2024-03-25T02:18:16;0.60;;;0.40;;
14396;SDS011;50653;47.810;13.022;2024-03-25T02:20:42;1.13;;;0.40;;
14396;SDS011;50653;47.810;13.022;2024-03-25T02:23:09;0.50;;;0.40;;
14396;SDS011;50653;47.810;13.022;2024-03-25T02:25:35;0.53;;;0.40;;
14396;SDS011;50653;47.810;13.022;2024-03-25T02:28:03;1.00;;;0.40;;
14396;SDS011;50653;47.810;13.022;2024-03-25T02:30:29;0.70;;;0.50;;
14396;SDS011;50653;47.810;13.022;2024-03-25T02:32:55;0.50;;;0.40;;
14396;SDS011;50653;47.810;13.022;2024-03-25T02:35:21;0.50;;;0.40;;
14396;SDS011;50653;47.810;13.022;2024-03-25T02:37:50;0.93;;;0.50;;
14396;SDS011;50653;47.810;13.022;2024-03-25T02:40:16;0.90;;;0.40;;
14396;SDS011;50653;47.810;13.022;2024-03-25T02:42:43;0.60;;;0.40;;
14396;SDS011;50653;47.810;13.022;2024-03-25T02:45:09;0.60;;;0.47;;
14396;SDS011;50653;47.810;13.022;2024-03-25T02:47:35;0.60;;;0.50;;
14396;SDS011;50653;47.810;13.022;2024-03-25T02:50:01;0.80;;;0.50;;
14396;SDS011;50653;47.810;13.022;2024-03-25T02:52:27;0.83;;;0.60;;
14396;SDS011;50653;47.810;13.022;2024-03-25T02:54:52;0.70;;;0.57;;
14396;SDS011;50653;47.810;13.022;2024-03-25T02:57:21;0.50;;;0.40;;
14396;SDS011;50653;47.810;13.022;2024-03-25T02:59:47;0.50;;;0.40;;
14396;SDS011;50653;47.810;13.022;2024-03-25T03:02:12;0.63;;;0.50;;
14396;SDS011;50653;47.810;13.022;2024-03-25T03:04:38;0.60;;;0.60;;
14396;SDS011;50653;47.810;13.022;2024-03-25T03:07:04;0.80;;;0.60;;
14396;SDS011;50653;47.810;13.022;2024-03-25T03:09:30;1.63;;;0.50;;
14396;SDS011;50653;47.810;13.022;2024-03-25T03:11:56;0.60;;;0.40;;
14396;SDS011;50653;47.810;13.022;2024-03-25T03:14:21;0.90;;;0.60;;
14396;SDS011;50653;47.810;13.022;2024-03-25T03:16:47;2.03;;;0.60;;
14396;SDS011;50653;47.810;13.022;2024-03-25T03:19:14;0.63;;;0.50;;
14396;SDS011;50653;47.810;13.022;2024-03-25T03:21:40;1.90;;;0.60;;
14396;SDS011;50653;47.810;13.022;2024-03-25T03:24:05;0.60;;;0.50;;
14396;SDS011;50653;47.810;13.022;2024-03-25T03:26:31;0.70;;;0.50;;
14396;SDS011;50653;47.810;13.022;2024-03-25T03:28:57;0.60;;;0.47;;
14396;SDS011;50653;47.810;13.022;2024-03-25T03:31:23;1.43;;;0.70;;
14396;SDS011;50653;47.810;13.022;2024-03-25T03:33:49;0.60;;;0.50;;
14396;SDS011;50653;47.810;13.022;2024-03-25T03:36:15;0.70;;;0.50;;
14396;SDS011;50653;47.810;13.022;2024-03-25T03:38:42;0.90;;;0.50;;
14396;SDS011;50653;47.810;13.022;2024-03-25T03:41:08;0.50;;;0.40;;
14396;SDS011;50653;47.810;13.022;2024-03-25T03:43:34;0.70;;;0.40;;
14396;SDS011;50653;47.810;13.022;2024-03-25T03:45:59;0.80;;;0.50;;
14396;SDS011;50653;47.810;13.022;2024-03-25T03:48:25;0.80;;;0.60;;
14396;SDS011;50653;47.810;13.022;2024-03-25T03:50:51;1.57;;;0.50;;
14396;SDS011;50653;47.810;13.022;2024-03-25T03:53:17;0.67;;;0.60;;
14396;SDS011;50653;47.810;13.022;2024-03-25T03:55:52;0.70;;;0.50;;
14396;SDS011;50653;47.810;13.022;2024-03-25T03:58:18;0.70;;;0.63;;
14396;SDS011;50653;47.810;13.022;2024-03-25T04:00:44;0.60;;;0.50;;
14396;SDS011;50653;47.810;13.022;2024-03-25T04:03:10;0.80;;;0.67;;
14396;SDS011;50653;47.810;13.022;2024-03-25T04:05:35;1.60;;;1.10;;
14396;SDS011;50653;47.810;13.022;2024-03-25T04:08:01;1.60;;;0.83;;
14396;SDS011;50653;47.810;13.022;2024-03-25T04:10:27;1.00;;;0.90;;
14396;SDS011;50653;47.810;13.022;2024-03-25T04:12:52;0.70;;;0.67;;
14396;SDS011;50653;47.810;13.022;2024-03-25T04:15:18;1.00;;;0.90;;
14396;SDS011;50653;47.810;13.022;2024-03-25T04:17:44;0.60;;;0.50;;
14396;SDS011;50653;47.810;13.022;2024-03-25T04:20:11;0.93;;;0.93;;
14396;SDS011;50653;47.810;13.022;2024-03-25T04:22:40;0.80;;;0.80;;
14396;SDS011;50653;47.810;13.022;2024-03-25T04:25:07;0.90;;;0.57;;
14396;SDS011;50653;47.810;13.022;2024-03-25T04:27:37;0.93;;;0.77;;
14396;SDS011;50653;47.810;13.022;2024-03-25T04:30:06;1.00;;;0.60;;
14396;SDS011;50653;47.810;13.022;2024-03-25T04:32:33;0.60;;;0.50;;
14396;SDS011;50653;47.810;13.022;2024-03-25T04:35:00;0.60;;;0.50;;
14396;SDS011;50653;47.810;13.022;2024-03-25T04:37:26;0.70;;;0.60;;
14396;SDS011;50653;47.810;13.022;2024-03-25T04:39:53;0.80;;;0.80;;
14396;SDS011;50653;47.810;13.022;2024-03-25T04:42:19;0.73;;;0.73;;
14396;SDS011;50653;47.810;13.022;2024-03-25T04:44:45;0.60;;;0.50;;
14396;SDS011;50653;47.810;13.022;2024-03-25T04:47:11;0.80;;;0.80;;
14396;SDS011;50653;47.810;13.022;2024-03-25T04:49:36;0.83;;;0.73;;
14396;SDS011;50653;47.810;13.022;2024-03-25T04:52:03;0.97;;;0.63;;
14396;SDS011;50653;47.810;13.022;2024-03-25T04:54:29;0.60;;;0.57;;
14396;SDS011;50653;47.810;13.022;2024-03-25T04:56:55;1.10;;;0.80;;
14396;SDS011;50653;47.810;13.022;2024-03-25T04:59:21;0.90;;;0.80;;
14396;SDS011;50653;47.810;13.022;2024-03-25T05:01:47;0.70;;;0.70;;
14396;SDS011;50653;47.810;13.022;2024-03-25T05:04:12;1.70;;;1.00;;
14396;SDS011;50653;47.810;13.022;2024-03-25T05:06:38;1.87;;;0.80;;
14396;SDS011;50653;47.810;13.022;2024-03-25T05:09:04;2.27;;;0.80;;
14396;SDS011;50653;47.810;13.022;2024-03-25T05:11:31;0.70;;;0.70;;
14396;SDS011;50653;47.810;13.022;2024-03-25T05:13:57;0.60;;;0.47;;
14396;SDS011;50653;47.810;13.022;2024-03-25T05:16:23;0.70;;;0.60;;
14396;SDS011;50653;47.810;13.022;2024-03-25T05:18:49;0.60;;;0.50;;
14396;SDS011;50653;47.810;13.022;2024-03-25T05:21:15;0.80;;;0.60;;
14396;SDS011;50653;47.810;13.022;2024-03-25T05:23:40;1.40;;;0.90;;
14396;SDS011;50653;47.810;13.022;2024-03-25T05:26:07;1.83;;;0.70;;
14396;SDS011;50653;47.810;13.022;2024-03-25T05:28:33;0.63;;;0.57;;
14396;SDS011;50653;47.810;13.022;2024-03-25T05:31:08;0.77;;;0.70;;
14396;SDS011;50653;47.810;13.022;2024-03-25T05:33:34;0.70;;;0.60;;
14396;SDS011;50653;47.810;13.022;2024-03-25T05:36:00;1.63;;;0.93;;
14396;SDS011;50653;47.810;13.022;2024-03-25T05:38:28;0.90;;;0.80;;
14396;SDS011;50653;47.810;13.022;2024-03-25T05:40:53;0.70;;;0.50;;
14396;SDS011;50653;47.810;13.022;2024-03-25T05:43:19;0.63;;;0.60;;
14396;SDS011;50653;47.810;13.022;2024-03-25T05:45:54;0.80;;;0.80;;
14396;SDS011;50653;47.810;13.022;2024-03-25T05:48:22;0.60;;;0.50;;
14396;SDS011;50653;47.810;13.022;2024-03-25T05:51:00;0.90;;;0.60;;
14396;SDS011;50653;47.810;13.022;2024-03-25T05:53:27;0.70;;;0.70;;
14396;SDS011;50653;47.810;13.022;2024-03-25T05:55:53;1.00;;;0.60;;
14396;SDS011;50653;47.810;13.022;2024-03-25T05:58:19;0.87;;;0.70;;
14396;SDS011;50653;47.810;13.022;2024-03-25T06:00:49;1.90;;;0.60;;
14396;SDS011;50653;47.810;13.022;2024-03-25T06:03:15;1.40;;;0.70;;
14396;SDS011;50653;47.810;13.022;2024-03-25T06:05:42;0.70;;;0.70;;
14396;SDS011;50653;47.810;13.022;2024-03-25T06:08:07;0.83;;;0.70;;
14396;SDS011;50653;47.810;13.022;2024-03-25T06:10:43;0.70;;;0.60;;
14396;SDS011;50653;47.810;13.022;2024-03-25T06:13:09;0.70;;;0.60;;
14396;SDS011;50653;47.810;13.022;2024-03-25T06:15:35;0.60;;;0.53;;
14396;SDS011;50653;47.810;13.022;2024-03-25T06:18:01;0.60;;;0.50;;
14396;SDS011;50653;47.810;13.022;2024-03-25T06:20:26;0.70;;;0.70;;
14396;SDS011;50653;47.810;13.022;2024-03-25T06:22:52;0.67;;;0.60;;
14396;SDS011;50653;47.810;13.022;2024-03-25T06:25:18;0.70;;;0.60;;
14396;SDS011;50653;47.810;13.022;2024-03-25T06:27:43;1.20;;;0.80;;
14396;SDS011;50653;47.810;13.022;2024-03-25T06:30:09;0.87;;;0.77;;
14396;SDS011;50653;47.810;13.022;2024-03-25T06:32:54;0.90;;;0.70;;
14396;SDS011;50653;47.810;13.022;2024-03-25T06:35:38;0.80;;;0.60;;
14396;SDS011;50653;47.810;13.022;2024-03-25T06:38:04;0.70;;;0.50;;
14396;SDS011;50653;47.810;13.022;2024-03-25T06:40:30;0.80;;;0.70;;
14396;SDS011;50653;47.810;13.022;2024-03-25T06:42:56;1.00;;;1.00;;
14396;SDS011;50653;47.810;13.022;2024-03-25T06:45:22;0.80;;;0.60;;
14396;SDS011;50653;47.810;13.022;2024-03-25T06:47:48;1.30;;;1.20;;
14396;SDS011;50653;47.810;13.022;2024-03-25T06:50:14;0.87;;;0.70;;
14396;SDS011;50653;47.810;13.022;2024-03-25T06:52:40;1.00;;;0.80;;
14396;SDS011;50653;47.810;13.022;2024-03-25T06:55:05;1.40;;;0.70;;
14396;SDS011;50653;47.810;13.022;2024-03-25T06:57:31;1.00;;;0.90;;
14396;SDS011;50653;47.810;13.022;2024-03-25T06:59:58;0.90;;;0.60;;
14396;SDS011;50653;47.810;13.022;2024-03-25T07:02:23;2.00;;;0.90;;
14396;SDS011;50653;47.810;13.022;2024-03-25T07:04:49;0.83;;;0.70;;
14396;SDS011;50653;47.810;13.022;2024-03-25T07:07:15;1.10;;;1.00;;
14396;SDS011;50653;47.810;13.022;2024-03-25T07:09:40;1.10;;;1.00;;
14396;SDS011;50653;47.810;13.022;2024-03-25T07:12:06;1.30;;;1.03;;
14396;SDS011;50653;47.810;13.022;2024-03-25T07:14:32;1.00;;;0.80;;
14396;SDS011;50653;47.810;13.022;2024-03-25T07:16:58;0.80;;;0.80;;
14396;SDS011;50653;47.810;13.022;2024-03-25T07:19:24;1.60;;;1.10;;
14396;SDS011;50653;47.810;13.022;2024-03-25T07:21:50;1.07;;;1.07;;
14396;SDS011;50653;47.810;13.022;2024-03-25T07:24:16;0.83;;;0.70;;
14396;SDS011;50653;47.810;13.022;2024-03-25T07:26:41;0.90;;;0.80;;
14396;SDS011;50653;47.810;13.022;2024-03-25T07:29:07;0.93;;;0.83;;
14396;SDS011;50653;47.810;13.022;2024-03-25T07:31:33;1.10;;;0.90;;
14396;SDS011;50653;47.810;13.022;2024-03-25T07:33:59;2.30;;;0.90;;
14396;SDS011;50653;47.810;13.022;2024-03-25T07:36:25;0.70;;;0.60;;
14396;SDS011;50653;47.810;13.022;2024-03-25T07:38:50;0.80;;;0.67;;
14396;SDS011;50653;47.810;13.022;2024-03-25T07:41:16;0.80;;;0.73;;
14396;SDS011;50653;47.810;13.022;2024-03-25T07:43:41;0.57;;;0.57;;
14396;SDS011;50653;47.810;13.022;2024-03-25T07:46:07;1.20;;;0.87;;
14396;SDS011;50653;47.810;13.022;2024-03-25T07:48:33;1.07;;;0.90;;
14396;SDS011;50653;47.810;13.022;2024-03-25T07:51:00;1.70;;;0.60;;
14396;SDS011;50653;47.810;13.022;2024-03-25T07:53:26;1.00;;;0.83;;
14396;SDS011;50653;47.810;13.022;2024-03-25T07:55:52;0.90;;;0.90;;
14396;SDS011;50653;47.810;13.022;2024-03-25T07:58:17;2.83;;;1.27;;
14396;SDS011;50653;47.810;13.022;2024-03-25T08:00:43;1.03;;;0.97;;
14396;SDS011;50653;47.810;13.022;2024-03-25T08:03:09;0.90;;;0.90;;
14396;SDS011;50653;47.810;13.022;2024-03-25T08:05:35;1.93;;;1.33;;
14396;SDS011;50653;47.810;13.022;2024-03-25T08:08:01;1.03;;;0.93;;
14396;SDS011;50653;47.810;13.022;2024-03-25T08:10:27;1.03;;;0.93;;
14396;SDS011;50653;47.810;13.022;2024-03-25T08:12:53;1.17;;;1.07;;
14396;SDS011;50653;47.810;13.022;2024-03-25T08:15:19;1.70;;;1.27;;
14396;SDS011;50653;47.810;13.022;2024-03-25T08:17:44;1.07;;;0.93;;
14396;SDS011;50653;47.810;13.022;2024-03-25T08:20:10;1.20;;;1.00;;
14396;SDS011;50653;47.810;13.022;2024-03-25T08:22:37;1.00;;;0.80;;
14396;SDS011;50653;47.810;13.022;2024-03-25T08:25:03;1.00;;;0.90;;
14396;SDS011;50653;47.810;13.022;2024-03-25T08:27:29;4.50;;;0.70;;
14396;SDS011;50653;47.810;13.022;2024-03-25T08:29:55;1.10;;;0.60;;
14396;SDS011;50653;47.810;13.022;2024-03-25T08:32:21;0.93;;;0.77;;
14396;SDS011;50653;47.810;13.022;2024-03-25T08:34:47;1.23;;;0.70;;
14396;SDS011;50653;47.810;13.022;2024-03-25T08:37:13;1.10;;;0.80;;
14396;SDS011;50653;47.810;13.022;2024-03-25T08:39:39;1.00;;;0.90;;
14396;SDS011;50653;47.810;13.022;2024-03-25T08:42:05;0.90;;;0.80;;
14396;SDS011;50653;47.810;13.022;2024-03-25T08:44:31;1.07;;;0.73;;
14396;SDS011;50653;47.810;13.022;2024-03-25T08:46:56;1.27;;;0.73;;
14396;SDS011;50653;47.810;13.022;2024-03-25T08:49:22;0.83;;;0.83;;
14396;SDS011;50653;47.810;13.022;2024-03-25T08:51:48;1.00;;;0.73;;
14396;SDS011;50653;47.810;13.022;2024-03-25T08:54:13;0.90;;;0.70;;
14396;SDS011;50653;47.810;13.022;2024-03-25T08:56:39;0.60;;;0.60;;
14396;SDS011;50653;47.810;13.022;2024-03-25T08:59:05;0.80;;;0.67;;
14396;SDS011;50653;47.810;13.022;2024-03-25T09:01:31;0.93;;;0.70;;
14396;SDS011;50653;47.810;13.022;2024-03-25T09:03:56;1.00;;;0.60;;
14396;SDS011;50653;47.810;13.022;2024-03-25T09:06:22;0.90;;;0.83;;
14396;SDS011;50653;47.810;13.022;2024-03-25T09:08:48;0.80;;;0.70;;
14396;SDS011;50653;47.810;13.022;2024-03-25T09:11:32;1.43;;;1.33;;
14396;SDS011;50653;47.810;13.022;2024-03-25T09:13:58;1.70;;;0.60;;
14396;SDS011;50653;47.810;13.022;2024-03-25T09:16:24;0.80;;;0.70;;
14396;SDS011;50653;47.810;13.022;2024-03-25T09:18:49;0.70;;;0.50;;
14396;SDS011;50653;47.810;13.022;2024-03-25T09:21:15;0.80;;;0.70;;
14396;SDS011;50653;47.810;13.022;2024-03-25T09:23:41;1.10;;;0.90;;
14396;SDS011;50653;47.810;13.022;2024-03-25T09:26:07;0.87;;;0.80;;
14396;SDS011;50653;47.810;13.022;2024-03-25T09:28:32;0.73;;;0.60;;
14396;SDS011;50653;47.810;13.022;2024-03-25T09:30:58;1.00;;;0.90;;
14396;SDS011;50653;47.810;13.022;2024-03-25T09:33:23;0.80;;;0.70;;
14396;SDS011;50653;47.810;13.022;2024-03-25T09:35:50;1.53;;;0.80;;
14396;SDS011;50653;47.810;13.022;2024-03-25T09:38:16;1.20;;;0.97;;
14396;SDS011;50653;47.810;13.022;2024-03-25T09:40:41;0.90;;;0.80;;
14396;SDS011;50653;47.810;13.022;2024-03-25T09:43:12;0.80;;;0.60;;
14396;SDS011;50653;47.810;13.022;2024-03-25T09:45:44;1.20;;;1.10;;
14396;SDS011;50653;47.810;13.022;2024-03-25T09:48:17;0.90;;;0.90;;
14396;SDS011;50653;47.810;13.022;2024-03-25T09:50:46;1.27;;;1.17;;
14396;SDS011;50653;47.810;13.022;2024-03-25T09:53:14;1.30;;;1.20;;
14396;SDS011;50653;47.810;13.022;2024-03-25T09:55:39;0.87;;;0.73;;
14396;SDS011;50653;47.810;13.022;2024-03-25T09:58:05;1.00;;;0.90;;
14396;SDS011;50653;47.810;13.022;2024-03-25T10:00:31;0.70;;;0.60;;
14396;SDS011;50653;47.810;13.022;2024-03-25T10:02:57;1.00;;;0.70;;
14396;SDS011;50653;47.810;13.022;2024-03-25T10:05:22;0.70;;;0.50;;
14396;SDS011;50653;47.810;13.022;2024-03-25T10:07:48;0.80;;;0.60;;
14396;SDS011;50653;47.810;13.022;2024-03-25T10:10:18;0.70;;;0.50;;
14396;SDS011;50653;47.810;13.022;2024-03-25T10:12:45;1.10;;;0.70;;
14396;SDS011;50653;47.810;13.022;2024-03-25T10:15:17;0.60;;;0.50;;
14396;SDS011;50653;47.810;13.022;2024-03-25T10:17:43;0.80;;;0.53;;
14396;SDS011;50653;47.810;13.022;2024-03-25T10:20:15;1.53;;;1.30;;
14396;SDS011;50653;47.810;13.022;2024-03-25T10:22:45;1.60;;;1.30;;
14396;SDS011;50653;47.810;13.022;2024-03-25T10:25:25;1.97;;;1.40;;
14396;SDS011;50653;47.810;13.022;2024-03-25T10:28:01;0.70;;;0.70;;
14396;SDS011;50653;47.810;13.022;2024-03-25T10:30:28;1.40;;;1.03;;
14396;SDS011;50653;47.810;13.022;2024-03-25T10:32:57;1.27;;;0.70;;
14396;SDS011;50653;47.810;13.022;2024-03-25T10:35:27;0.70;;;0.60;;
14396;SDS011;50653;47.810;13.022;2024-03-25T10:37:58;1.57;;;0.80;;
14396;SDS011;50653;47.810;13.022;2024-03-25T10:40:35;0.80;;;0.70;;
14396;SDS011;50653;47.810;13.022;2024-03-25T10:43:03;1.10;;;0.80;;
14396;SDS011;50653;47.810;13.022;2024-03-25T10:45:43;0.70;;;0.60;;
14396;SDS011;50653;47.810;13.022;2024-03-25T10:48:16;0.90;;;0.73;;
14396;SDS011;50653;47.810;13.022;2024-03-25T10:50:48;0.87;;;0.60;;
14396;SDS011;50653;47.810;13.022;2024-03-25T10:53:17;1.03;;;0.40;;
14396;SDS011;50653;47.810;13.022;2024-03-25T10:55:46;0.67;;;0.60;;
14396;SDS011;50653;47.810;13.022;2024-03-25T10:58:15;0.70;;;0.60;;
14396;SDS011;50653;47.810;13.022;2024-03-25T11:00:42;0.63;;;0.57;;
14396;SDS011;50653;47.810;13.022;2024-03-25T11:03:11;0.80;;;0.70;;
14396;SDS011;50653;47.810;13.022;2024-03-25T11:05:37;1.33;;;0.60;;
14396;SDS011;50653;47.810;13.022;2024-03-25T11:08:13;0.60;;;0.50;;
14396;SDS011;50653;47.810;13.022;2024-03-25T11:10:40;0.70;;;0.50;;
14396;SDS011;50653;47.810;13.022;2024-03-25T11:13:13;0.70;;;0.60;;
14396;SDS011;50653;47.810;13.022;2024-03-25T11:15:46;0.70;;;0.47;;
14396;SDS011;50653;47.810;13.022;2024-03-25T11:18:17;0.77;;;0.50;;
14396;SDS011;50653;47.810;13.022;2024-03-25T11:20:58;0.60;;;0.50;;
14396;SDS011;50653;47.810;13.022;2024-03-25T11:23:25;0.60;;;0.50;;
14396;SDS011;50653;47.810;13.022;2024-03-25T11:25:54;0.50;;;0.50;;
14396;SDS011;50653;47.810;13.022;2024-03-25T11:28:26;0.60;;;0.60;;
14396;SDS011;50653;47.810;13.022;2024-03-25T11:30:55;0.60;;;0.50;;
14396;SDS011;50653;47.810;13.022;2024-03-25T11:33:21;1.10;;;0.67;;
14396;SDS011;50653;47.810;13.022;2024-03-25T11:35:48;0.87;;;0.73;;
14396;SDS011;50653;47.810;13.022;2024-03-25T11:38:14;1.60;;;0.60;;
14396;SDS011;50653;47.810;13.022;2024-03-25T11:40:43;1.83;;;0.60;;
14396;SDS011;50653;47.810;13.022;2024-03-25T11:43:17;0.60;;;0.50;;
14396;SDS011;50653;47.810;13.022;2024-03-25T11:45:46;2.70;;;0.80;;
14396;SDS011;50653;47.810;13.022;2024-03-25T11:48:13;1.43;;;0.60;;
14396;SDS011;50653;47.810;13.022;2024-03-25T11:50:40;0.80;;;0.60;;
14396;SDS011;50653;47.810;13.022;2024-03-25T11:53:06;0.70;;;0.50;;
14396;SDS011;50653;47.810;13.022;2024-03-25T11:55:32;0.80;;;0.57;;
14396;SDS011;50653;47.810;13.022;2024-03-25T11:57:58;0.77;;;0.50;;
14396;SDS011;50653;47.810;13.022;2024-03-25T12:00:24;0.67;;;0.50;;
14396;SDS011;50653;47.810;13.022;2024-03-25T12:02:50;0.60;;;0.50;;
14396;SDS011;50653;47.810;13.022;2024-03-25T12:05:17;0.90;;;0.70;;
14396;SDS011;50653;47.810;13.022;2024-03-25T12:07:43;0.77;;;0.60;;
14396;SDS011;50653;47.810;13.022;2024-03-25T12:10:09;0.70;;;0.60;;
14396;SDS011;50653;47.810;13.022;2024-03-25T12:12:54;0.80;;;0.60;;
14396;SDS011;50653;47.810;13.022;2024-03-25T12:15:20;1.10;;;0.50;;
14396;SDS011;50653;47.810;13.022;2024-03-25T12:17:47;0.70;;;0.50;;
14396;SDS011;50653;47.810;13.022;2024-03-25T12:20:16;0.90;;;0.70;;
14396;SDS011;50653;47.810;13.022;2024-03-25T12:22:43;3.17;;;0.60;;
14396;SDS011;50653;47.810;13.022;2024-03-25T12:25:09;0.87;;;0.63;;
14396;SDS011;50653;47.810;13.022;2024-03-25T12:27:38;1.83;;;0.70;;
14396;SDS011;50653;47.810;13.022;2024-03-25T12:30:08;0.70;;;0.57;;
14396;SDS011;50653;47.810;13.022;2024-03-25T12:35:08;1.30;;;0.70;;
14396;SDS011;50653;47.810;13.022;2024-03-25T12:37:39;0.60;;;0.50;;
14396;SDS011;50653;47.810;13.022;2024-03-25T12:40:06;0.70;;;0.50;;
14396;SDS011;50653;47.810;13.022;2024-03-25T12:42:33;0.70;;;0.50;;
14396;SDS011;50653;47.810;13.022;2024-03-25T12:44:59;0.60;;;0.40;;
14396;SDS011;50653;47.810;13.022;2024-03-25T12:47:25;0.63;;;0.50;;
14396;SDS011;50653;47.810;13.022;2024-03-25T12:49:51;0.60;;;0.40;;
14396;SDS011;50653;47.810;13.022;2024-03-25T12:52:17;1.00;;;0.50;;
14396;SDS011;50653;47.810;13.022;2024-03-25T12:54:43;1.30;;;0.40;;
14396;SDS011;50653;47.810;13.022;2024-03-25T12:57:08;0.70;;;0.50;;
14396;SDS011;50653;47.810;13.022;2024-03-25T12:59:34;0.70;;;0.60;;
14396;SDS011;50653;47.810;13.022;2024-03-25T13:02:00;0.70;;;0.50;;
14396;SDS011;50653;47.810;13.022;2024-03-25T13:04:26;0.93;;;0.60;;
14396;SDS011;50653;47.810;13.022;2024-03-25T13:06:52;2.90;;;0.40;;
14396;SDS011;50653;47.810;13.022;2024-03-25T13:09:17;0.63;;;0.47;;
14396;SDS011;50653;47.810;13.022;2024-03-25T13:11:43;0.60;;;0.50;;
14396;SDS011;50653;47.810;13.022;2024-03-25T13:14:11;0.70;;;0.50;;
14396;SDS011;50653;47.810;13.022;2024-03-25T13:16:37;1.50;;;0.83;;
14396;SDS011;50653;47.810;13.022;2024-03-25T13:19:03;0.87;;;0.60;;
14396;SDS011;50653;47.810;13.022;2024-03-25T13:21:29;0.90;;;0.70;;
14396;SDS011;50653;47.810;13.022;2024-03-25T13:23:55;1.77;;;0.70;;
14396;SDS011;50653;47.810;13.022;2024-03-25T13:26:21;0.60;;;0.50;;
14396;SDS011;50653;47.810;13.022;2024-03-25T13:28:46;0.70;;;0.60;;
14396;SDS011;50653;47.810;13.022;2024-03-25T13:31:12;0.80;;;0.50;;
14396;SDS011;50653;47.810;13.022;2024-03-25T13:33:38;0.70;;;0.50;;
14396;SDS011;50653;47.810;13.022;2024-03-25T13:36:04;0.50;;;0.40;;
14396;SDS011;50653;47.810;13.022;2024-03-25T13:38:31;0.60;;;0.50;;
14396;SDS011;50653;47.810;13.022;2024-03-25T13:40:57;0.73;;;0.50;;
14396;SDS011;50653;47.810;13.022;2024-03-25T13:43:26;0.60;;;0.40;;
14396;SDS011;50653;47.810;13.022;2024-03-25T13:45:52;1.47;;;0.50;;
14396;SDS011;50653;47.810;13.022;2024-03-25T13:48:18;0.80;;;0.50;;
14396;SDS011;50653;47.810;13.022;2024-03-25T13:50:43;0.70;;;0.50;;
14396;SDS011;50653;47.810;13.022;2024-03-25T13:53:13;0.70;;;0.40;;
14396;SDS011;50653;47.810;13.022;2024-03-25T13:55:39;0.60;;;0.50;;
14396;SDS011;50653;47.810;13.022;2024-03-25T13:58:05;0.50;;;0.40;;
14396;SDS011;50653;47.810;13.022;2024-03-25T14:00:31;0.60;;;0.40;;
14396;SDS011;50653;47.810;13.022;2024-03-25T14:02:58;1.07;;;0.40;;
14396;SDS011;50653;47.810;13.022;2024-03-25T14:05:25;0.60;;;0.40;;
14396;SDS011;50653;47.810;13.022;2024-03-25T14:07:51;0.60;;;0.40;;
14396;SDS011;50653;47.810;13.022;2024-03-25T14:10:17;0.50;;;0.40;;
14396;SDS011;50653;47.810;13.022;2024-03-25T14:12:42;0.60;;;0.50;;
14396;SDS011;50653;47.810;13.022;2024-03-25T14:15:08;1.47;;;0.50;;
14396;SDS011;50653;47.810;13.022;2024-03-25T14:17:34;0.90;;;0.50;;
14396;SDS011;50653;47.810;13.022;2024-03-25T14:20:00;0.70;;;0.40;;
14396;SDS011;50653;47.810;13.022;2024-03-25T14:22:26;0.50;;;0.40;;
14396;SDS011;50653;47.810;13.022;2024-03-25T14:24:52;0.60;;;0.40;;
14396;SDS011;50653;47.810;13.022;2024-03-25T14:27:22;0.50;;;0.40;;
14396;SDS011;50653;47.810;13.022;2024-03-25T14:29:49;0.50;;;0.40;;
14396;SDS011;50653;47.810;13.022;2024-03-25T14:32:14;0.60;;;0.47;;
14396;SDS011;50653;47.810;13.022;2024-03-25T14:34:40;0.70;;;0.50;;